sensor_id;sensor_type;location;lat;lon;timestamp;P1;durP1;ratioP1;P2;durP2;ratioP2
20966;SDS011;10642;50.682;18.510;2023-05-10T00:00:17;18.07;;;7.47;;
20966;SDS011;10642;50.682;18.510;2023-05-10T00:02:44;16.40;;;7.00;;
20966;SDS011;10642;50.682;18.510;2023-05-10T00:05:12;17.23;;;6.70;;
20966;SDS011;10642;50.682;18.510;2023-05-10T00:07:39;14.60;;;6.43;;
20966;SDS011;10642;50.682;18.510;2023-05-10T00:10:06;15.17;;;6.97;;
20966;SDS011;10642;50.682;18.510;2023-05-10T00:12:33;16.10;;;6.63;;
20966;SDS011;10642;50.682;18.510;2023-05-10T00:15:00;14.43;;;6.30;;
20966;SDS011;10642;50.682;18.510;2023-05-10T00:17:27;18.93;;;6.53;;
20966;SDS011;10642;50.682;18.510;2023-05-10T00:19:54;17.57;;;6.50;;
20966;SDS011;10642;50.682;18.510;2023-05-10T00:22:21;10.57;;;5.90;;
20966;SDS011;10642;50.682;18.510;2023-05-10T00:24:47;13.07;;;6.57;;
20966;SDS011;10642;50.682;18.510;2023-05-10T00:27:14;11.23;;;5.73;;
20966;SDS011;10642;50.682;18.510;2023-05-10T00:29:42;14.97;;;5.83;;
20966;SDS011;10642;50.682;18.510;2023-05-10T00:32:09;15.17;;;6.73;;
20966;SDS011;10642;50.682;18.510;2023-05-10T00:34:36;11.03;;;6.10;;
20966;SDS011;10642;50.682;18.510;2023-05-10T00:37:04;10.43;;;5.57;;
20966;SDS011;10642;50.682;18.510;2023-05-10T00:39:32;14.33;;;5.97;;
20966;SDS011;10642;50.682;18.510;2023-05-10T00:41:58;10.73;;;5.50;;
20966;SDS011;10642;50.682;18.510;2023-05-10T00:44:27;9.67;;;5.17;;
20966;SDS011;10642;50.682;18.510;2023-05-10T00:46:54;11.20;;;5.93;;
20966;SDS011;10642;50.682;18.510;2023-05-10T00:49:21;13.87;;;5.60;;
20966;SDS011;10642;50.682;18.510;2023-05-10T00:51:49;10.87;;;5.70;;
20966;SDS011;10642;50.682;18.510;2023-05-10T00:54:16;13.60;;;6.00;;
20966;SDS011;10642;50.682;18.510;2023-05-10T00:56:43;11.83;;;6.40;;
20966;SDS011;10642;50.682;18.510;2023-05-10T00:59:16;13.73;;;6.33;;
20966;SDS011;10642;50.682;18.510;2023-05-10T01:01:46;8.37;;;5.00;;
20966;SDS011;10642;50.682;18.510;2023-05-10T01:04:14;12.93;;;5.70;;
20966;SDS011;10642;50.682;18.510;2023-05-10T01:06:41;10.90;;;5.93;;
20966;SDS011;10642;50.682;18.510;2023-05-10T01:09:08;11.93;;;5.97;;
20966;SDS011;10642;50.682;18.510;2023-05-10T01:11:35;16.20;;;6.53;;
20966;SDS011;10642;50.682;18.510;2023-05-10T01:14:03;14.77;;;5.83;;
20966;SDS011;10642;50.682;18.510;2023-05-10T01:16:32;12.60;;;6.50;;
20966;SDS011;10642;50.682;18.510;2023-05-10T01:18:59;13.07;;;6.40;;
20966;SDS011;10642;50.682;18.510;2023-05-10T01:21:36;11.90;;;5.70;;
20966;SDS011;10642;50.682;18.510;2023-05-10T01:24:09;12.20;;;6.23;;
20966;SDS011;10642;50.682;18.510;2023-05-10T01:34:32;15.97;;;5.83;;
20966;SDS011;10642;50.682;18.510;2023-05-10T01:37:06;12.90;;;6.60;;
20966;SDS011;10642;50.682;18.510;2023-05-10T01:42:07;15.73;;;6.03;;
20966;SDS011;10642;50.682;18.510;2023-05-10T01:47:09;15.60;;;6.23;;
20966;SDS011;10642;50.682;18.510;2023-05-10T01:49:44;8.47;;;5.20;;
20966;SDS011;10642;50.682;18.510;2023-05-10T01:52:14;18.97;;;6.17;;
20966;SDS011;10642;50.682;18.510;2023-05-10T01:54:43;11.90;;;5.57;;
20966;SDS011;10642;50.682;18.510;2023-05-10T01:57:11;14.37;;;7.03;;
20966;SDS011;10642;50.682;18.510;2023-05-10T01:59:40;14.53;;;6.47;;
20966;SDS011;10642;50.682;18.510;2023-05-10T02:02:10;13.00;;;6.50;;
20966;SDS011;10642;50.682;18.510;2023-05-10T02:04:39;12.23;;;6.67;;
20966;SDS011;10642;50.682;18.510;2023-05-10T02:07:06;14.77;;;6.63;;
20966;SDS011;10642;50.682;18.510;2023-05-10T02:09:34;13.73;;;6.57;;
20966;SDS011;10642;50.682;18.510;2023-05-10T02:12:01;13.93;;;7.10;;
20966;SDS011;10642;50.682;18.510;2023-05-10T02:14:30;12.53;;;6.57;;
20966;SDS011;10642;50.682;18.510;2023-05-10T02:16:58;15.50;;;6.20;;
20966;SDS011;10642;50.682;18.510;2023-05-10T02:19:26;16.13;;;6.23;;
20966;SDS011;10642;50.682;18.510;2023-05-10T02:21:55;15.13;;;6.83;;
20966;SDS011;10642;50.682;18.510;2023-05-10T02:24:22;16.23;;;6.47;;
20966;SDS011;10642;50.682;18.510;2023-05-10T02:26:51;17.77;;;6.57;;
20966;SDS011;10642;50.682;18.510;2023-05-10T02:29:20;11.73;;;6.33;;
20966;SDS011;10642;50.682;18.510;2023-05-10T02:31:47;12.30;;;6.40;;
20966;SDS011;10642;50.682;18.510;2023-05-10T02:34:14;13.23;;;6.50;;
20966;SDS011;10642;50.682;18.510;2023-05-10T02:36:41;13.67;;;6.60;;
20966;SDS011;10642;50.682;18.510;2023-05-10T02:39:08;11.90;;;5.83;;
20966;SDS011;10642;50.682;18.510;2023-05-10T02:41:40;13.10;;;6.53;;
20966;SDS011;10642;50.682;18.510;2023-05-10T02:44:07;17.33;;;5.60;;
20966;SDS011;10642;50.682;18.510;2023-05-10T02:46:36;10.63;;;5.50;;
20966;SDS011;10642;50.682;18.510;2023-05-10T02:49:04;11.87;;;5.87;;
20966;SDS011;10642;50.682;18.510;2023-05-10T02:51:31;16.77;;;7.03;;
20966;SDS011;10642;50.682;18.510;2023-05-10T02:54:01;12.73;;;6.40;;
20966;SDS011;10642;50.682;18.510;2023-05-10T02:56:34;17.87;;;6.20;;
20966;SDS011;10642;50.682;18.510;2023-05-10T02:59:02;16.23;;;6.23;;
20966;SDS011;10642;50.682;18.510;2023-05-10T03:01:29;13.50;;;6.33;;
20966;SDS011;10642;50.682;18.510;2023-05-10T03:03:57;14.17;;;6.23;;
20966;SDS011;10642;50.682;18.510;2023-05-10T03:06:24;14.63;;;5.70;;
20966;SDS011;10642;50.682;18.510;2023-05-10T03:08:51;13.57;;;5.57;;
20966;SDS011;10642;50.682;18.510;2023-05-10T03:16:15;12.50;;;5.23;;
20966;SDS011;10642;50.682;18.510;2023-05-10T03:21:13;13.37;;;5.93;;
20966;SDS011;10642;50.682;18.510;2023-05-10T03:23:50;15.33;;;5.83;;
20966;SDS011;10642;50.682;18.510;2023-05-10T03:26:20;14.63;;;6.10;;
20966;SDS011;10642;50.682;18.510;2023-05-10T03:28:52;13.43;;;7.10;;
20966;SDS011;10642;50.682;18.510;2023-05-10T03:31:19;19.23;;;9.03;;
20966;SDS011;10642;50.682;18.510;2023-05-10T03:33:47;27.00;;;13.80;;
20966;SDS011;10642;50.682;18.510;2023-05-10T03:36:16;48.13;;;23.83;;
20966;SDS011;10642;50.682;18.510;2023-05-10T03:38:43;98.63;;;41.83;;
20966;SDS011;10642;50.682;18.510;2023-05-10T03:41:10;32.33;;;15.13;;
20966;SDS011;10642;50.682;18.510;2023-05-10T03:43:37;32.57;;;16.17;;
20966;SDS011;10642;50.682;18.510;2023-05-10T03:46:05;40.90;;;23.30;;
20966;SDS011;10642;50.682;18.510;2023-05-10T03:48:33;26.57;;;16.53;;
20966;SDS011;10642;50.682;18.510;2023-05-10T03:51:00;26.57;;;15.13;;
20966;SDS011;10642;50.682;18.510;2023-05-10T03:53:27;18.53;;;12.20;;
20966;SDS011;10642;50.682;18.510;2023-05-10T03:55:54;18.37;;;7.73;;
20966;SDS011;10642;50.682;18.510;2023-05-10T03:58:21;15.83;;;10.33;;
20966;SDS011;10642;50.682;18.510;2023-05-10T04:00:48;11.57;;;6.53;;
20966;SDS011;10642;50.682;18.510;2023-05-10T04:03:15;14.67;;;8.27;;
20966;SDS011;10642;50.682;18.510;2023-05-10T04:05:43;12.57;;;7.47;;
20966;SDS011;10642;50.682;18.510;2023-05-10T04:08:10;30.20;;;9.13;;
20966;SDS011;10642;50.682;18.510;2023-05-10T04:10:37;44.90;;;10.60;;
20966;SDS011;10642;50.682;18.510;2023-05-10T04:13:04;38.33;;;8.97;;
20966;SDS011;10642;50.682;18.510;2023-05-10T04:15:31;41.93;;;9.73;;
20966;SDS011;10642;50.682;18.510;2023-05-10T04:17:58;23.13;;;7.20;;
20966;SDS011;10642;50.682;18.510;2023-05-10T04:20:26;30.70;;;12.57;;
20966;SDS011;10642;50.682;18.510;2023-05-10T04:22:53;17.93;;;9.83;;
20966;SDS011;10642;50.682;18.510;2023-05-10T04:25:20;11.80;;;6.27;;
20966;SDS011;10642;50.682;18.510;2023-05-10T04:27:47;19.50;;;7.10;;
20966;SDS011;10642;50.682;18.510;2023-05-10T04:30:14;33.53;;;8.50;;
20966;SDS011;10642;50.682;18.510;2023-05-10T04:32:41;20.20;;;6.83;;
20966;SDS011;10642;50.682;18.510;2023-05-10T04:35:08;21.50;;;6.60;;
20966;SDS011;10642;50.682;18.510;2023-05-10T04:37:36;25.77;;;8.13;;
20966;SDS011;10642;50.682;18.510;2023-05-10T04:40:03;25.17;;;7.33;;
20966;SDS011;10642;50.682;18.510;2023-05-10T04:42:30;17.03;;;5.63;;
20966;SDS011;10642;50.682;18.510;2023-05-10T04:44:57;10.27;;;4.77;;
20966;SDS011;10642;50.682;18.510;2023-05-10T04:47:24;17.80;;;8.87;;
20966;SDS011;10642;50.682;18.510;2023-05-10T04:49:51;27.57;;;13.30;;
20966;SDS011;10642;50.682;18.510;2023-05-10T04:52:18;14.33;;;8.30;;
20966;SDS011;10642;50.682;18.510;2023-05-10T04:54:45;10.13;;;6.33;;
20966;SDS011;10642;50.682;18.510;2023-05-10T04:57:12;32.57;;;8.27;;
20966;SDS011;10642;50.682;18.510;2023-05-10T04:59:39;15.20;;;5.43;;
20966;SDS011;10642;50.682;18.510;2023-05-10T05:02:05;10.97;;;5.33;;
20966;SDS011;10642;50.682;18.510;2023-05-10T05:04:33;17.23;;;5.80;;
20966;SDS011;10642;50.682;18.510;2023-05-10T05:06:59;17.43;;;6.10;;
20966;SDS011;10642;50.682;18.510;2023-05-10T05:09:26;12.10;;;5.70;;
20966;SDS011;10642;50.682;18.510;2023-05-10T05:11:53;9.87;;;4.67;;
20966;SDS011;10642;50.682;18.510;2023-05-10T05:14:20;11.63;;;4.33;;
20966;SDS011;10642;50.682;18.510;2023-05-10T05:16:47;13.57;;;4.70;;
20966;SDS011;10642;50.682;18.510;2023-05-10T05:19:14;7.43;;;4.37;;
20966;SDS011;10642;50.682;18.510;2023-05-10T05:21:42;11.23;;;6.57;;
20966;SDS011;10642;50.682;18.510;2023-05-10T05:24:09;13.57;;;8.30;;
20966;SDS011;10642;50.682;18.510;2023-05-10T05:26:36;17.10;;;12.63;;
20966;SDS011;10642;50.682;18.510;2023-05-10T05:29:03;7.27;;;4.10;;
20966;SDS011;10642;50.682;18.510;2023-05-10T05:31:30;12.83;;;4.60;;
20966;SDS011;10642;50.682;18.510;2023-05-10T05:33:57;11.00;;;4.70;;
20966;SDS011;10642;50.682;18.510;2023-05-10T05:36:24;11.47;;;4.87;;
20966;SDS011;10642;50.682;18.510;2023-05-10T05:38:51;12.93;;;5.50;;
20966;SDS011;10642;50.682;18.510;2023-05-10T05:41:18;9.13;;;4.60;;
20966;SDS011;10642;50.682;18.510;2023-05-10T05:43:45;8.90;;;4.70;;
20966;SDS011;10642;50.682;18.510;2023-05-10T05:46:12;6.83;;;4.53;;
20966;SDS011;10642;50.682;18.510;2023-05-10T05:48:39;11.43;;;5.40;;
20966;SDS011;10642;50.682;18.510;2023-05-10T05:51:06;8.33;;;4.40;;
20966;SDS011;10642;50.682;18.510;2023-05-10T05:53:32;8.97;;;4.57;;
20966;SDS011;10642;50.682;18.510;2023-05-10T05:55:59;7.73;;;4.30;;
20966;SDS011;10642;50.682;18.510;2023-05-10T05:58:26;12.43;;;4.27;;
20966;SDS011;10642;50.682;18.510;2023-05-10T06:00:53;7.47;;;4.10;;
20966;SDS011;10642;50.682;18.510;2023-05-10T06:03:20;10.60;;;4.50;;
20966;SDS011;10642;50.682;18.510;2023-05-10T06:05:47;7.93;;;4.33;;
20966;SDS011;10642;50.682;18.510;2023-05-10T06:08:15;7.70;;;3.90;;
20966;SDS011;10642;50.682;18.510;2023-05-10T06:10:41;8.73;;;4.30;;
20966;SDS011;10642;50.682;18.510;2023-05-10T06:13:08;12.13;;;4.13;;
20966;SDS011;10642;50.682;18.510;2023-05-10T06:15:35;18.20;;;5.20;;
20966;SDS011;10642;50.682;18.510;2023-05-10T06:18:02;20.77;;;6.20;;
20966;SDS011;10642;50.682;18.510;2023-05-10T06:20:29;6.50;;;3.77;;
20966;SDS011;10642;50.682;18.510;2023-05-10T06:22:58;8.43;;;3.80;;
20966;SDS011;10642;50.682;18.510;2023-05-10T06:25:25;6.80;;;3.07;;
20966;SDS011;10642;50.682;18.510;2023-05-10T06:27:52;7.03;;;3.83;;
20966;SDS011;10642;50.682;18.510;2023-05-10T06:30:24;8.53;;;3.70;;
20966;SDS011;10642;50.682;18.510;2023-05-10T06:32:54;8.43;;;3.70;;
20966;SDS011;10642;50.682;18.510;2023-05-10T06:35:21;7.13;;;3.50;;
20966;SDS011;10642;50.682;18.510;2023-05-10T06:37:48;6.47;;;3.40;;
20966;SDS011;10642;50.682;18.510;2023-05-10T06:40:15;6.10;;;3.70;;
20966;SDS011;10642;50.682;18.510;2023-05-10T06:42:42;8.10;;;2.90;;
20966;SDS011;10642;50.682;18.510;2023-05-10T06:45:11;5.83;;;3.20;;
20966;SDS011;10642;50.682;18.510;2023-05-10T06:47:38;6.83;;;3.70;;
20966;SDS011;10642;50.682;18.510;2023-05-10T06:50:06;4.83;;;3.17;;
20966;SDS011;10642;50.682;18.510;2023-05-10T06:52:33;5.90;;;3.20;;
20966;SDS011;10642;50.682;18.510;2023-05-10T06:55:00;5.23;;;3.00;;
20966;SDS011;10642;50.682;18.510;2023-05-10T06:57:27;5.83;;;3.23;;
20966;SDS011;10642;50.682;18.510;2023-05-10T06:59:58;4.87;;;3.17;;
20966;SDS011;10642;50.682;18.510;2023-05-10T07:02:25;5.33;;;3.30;;
20966;SDS011;10642;50.682;18.510;2023-05-10T07:04:52;7.17;;;3.50;;
20966;SDS011;10642;50.682;18.510;2023-05-10T07:07:19;5.57;;;3.30;;
20966;SDS011;10642;50.682;18.510;2023-05-10T07:09:46;7.70;;;2.93;;
20966;SDS011;10642;50.682;18.510;2023-05-10T07:12:13;6.13;;;2.70;;
20966;SDS011;10642;50.682;18.510;2023-05-10T07:14:41;9.23;;;3.27;;
20966;SDS011;10642;50.682;18.510;2023-05-10T07:17:08;5.87;;;2.93;;
20966;SDS011;10642;50.682;18.510;2023-05-10T07:19:35;6.53;;;3.20;;
20966;SDS011;10642;50.682;18.510;2023-05-10T07:22:02;4.23;;;2.93;;
20966;SDS011;10642;50.682;18.510;2023-05-10T07:24:29;6.07;;;2.87;;
20966;SDS011;10642;50.682;18.510;2023-05-10T07:26:57;5.23;;;3.13;;
20966;SDS011;10642;50.682;18.510;2023-05-10T07:29:25;3.93;;;2.57;;
20966;SDS011;10642;50.682;18.510;2023-05-10T07:31:52;5.17;;;3.20;;
20966;SDS011;10642;50.682;18.510;2023-05-10T07:34:21;9.47;;;3.43;;
20966;SDS011;10642;50.682;18.510;2023-05-10T07:36:48;8.03;;;2.87;;
20966;SDS011;10642;50.682;18.510;2023-05-10T07:39:15;8.77;;;2.70;;
20966;SDS011;10642;50.682;18.510;2023-05-10T07:41:52;6.17;;;2.50;;
20966;SDS011;10642;50.682;18.510;2023-05-10T07:44:19;4.83;;;2.40;;
20966;SDS011;10642;50.682;18.510;2023-05-10T07:46:47;7.17;;;2.37;;
20966;SDS011;10642;50.682;18.510;2023-05-10T07:49:14;5.17;;;3.03;;
20966;SDS011;10642;50.682;18.510;2023-05-10T07:51:41;4.27;;;2.47;;
20966;SDS011;10642;50.682;18.510;2023-05-10T07:54:09;6.73;;;2.90;;
20966;SDS011;10642;50.682;18.510;2023-05-10T07:56:36;5.40;;;2.63;;
20966;SDS011;10642;50.682;18.510;2023-05-10T07:59:03;4.00;;;2.17;;
20966;SDS011;10642;50.682;18.510;2023-05-10T08:01:31;5.47;;;2.00;;
20966;SDS011;10642;50.682;18.510;2023-05-10T08:04:01;4.73;;;2.33;;
20966;SDS011;10642;50.682;18.510;2023-05-10T08:06:28;4.87;;;2.60;;
20966;SDS011;10642;50.682;18.510;2023-05-10T08:08:56;4.07;;;2.53;;
20966;SDS011;10642;50.682;18.510;2023-05-10T08:11:23;3.37;;;2.40;;
20966;SDS011;10642;50.682;18.510;2023-05-10T08:13:51;5.70;;;2.83;;
20966;SDS011;10642;50.682;18.510;2023-05-10T08:16:18;6.60;;;2.50;;
20966;SDS011;10642;50.682;18.510;2023-05-10T08:18:46;3.63;;;2.07;;
20966;SDS011;10642;50.682;18.510;2023-05-10T08:21:13;5.63;;;2.03;;
20966;SDS011;10642;50.682;18.510;2023-05-10T08:23:41;6.63;;;2.17;;
20966;SDS011;10642;50.682;18.510;2023-05-10T08:26:08;7.63;;;2.17;;
20966;SDS011;10642;50.682;18.510;2023-05-10T08:28:35;4.67;;;2.53;;
20966;SDS011;10642;50.682;18.510;2023-05-10T08:31:01;4.00;;;2.03;;
20966;SDS011;10642;50.682;18.510;2023-05-10T08:33:28;4.70;;;2.80;;
20966;SDS011;10642;50.682;18.510;2023-05-10T08:35:55;5.50;;;2.37;;
20966;SDS011;10642;50.682;18.510;2023-05-10T08:38:22;4.10;;;2.60;;
20966;SDS011;10642;50.682;18.510;2023-05-10T08:40:49;6.10;;;2.43;;
20966;SDS011;10642;50.682;18.510;2023-05-10T08:43:17;5.60;;;2.40;;
20966;SDS011;10642;50.682;18.510;2023-05-10T08:45:44;3.67;;;2.40;;
20966;SDS011;10642;50.682;18.510;2023-05-10T08:48:14;7.83;;;2.37;;
20966;SDS011;10642;50.682;18.510;2023-05-10T08:50:42;7.80;;;2.53;;
20966;SDS011;10642;50.682;18.510;2023-05-10T08:53:10;4.53;;;2.87;;
20966;SDS011;10642;50.682;18.510;2023-05-10T08:55:38;4.60;;;2.50;;
20966;SDS011;10642;50.682;18.510;2023-05-10T08:58:06;3.77;;;2.27;;
20966;SDS011;10642;50.682;18.510;2023-05-10T09:00:33;9.30;;;2.60;;
20966;SDS011;10642;50.682;18.510;2023-05-10T09:03:00;6.20;;;2.63;;
20966;SDS011;10642;50.682;18.510;2023-05-10T09:05:28;3.30;;;2.23;;
20966;SDS011;10642;50.682;18.510;2023-05-10T09:07:55;3.23;;;2.20;;
20966;SDS011;10642;50.682;18.510;2023-05-10T09:10:22;7.00;;;2.70;;
20966;SDS011;10642;50.682;18.510;2023-05-10T09:12:52;12.20;;;2.20;;
20966;SDS011;10642;50.682;18.510;2023-05-10T09:15:20;5.37;;;3.00;;
20966;SDS011;10642;50.682;18.510;2023-05-10T09:17:47;4.17;;;2.33;;
20966;SDS011;10642;50.682;18.510;2023-05-10T09:20:14;4.30;;;2.23;;
20966;SDS011;10642;50.682;18.510;2023-05-10T09:22:41;3.37;;;1.40;;
20966;SDS011;10642;50.682;18.510;2023-05-10T09:25:09;2.97;;;2.00;;
20966;SDS011;10642;50.682;18.510;2023-05-10T09:27:38;7.60;;;2.67;;
20966;SDS011;10642;50.682;18.510;2023-05-10T09:30:05;8.43;;;2.57;;
20966;SDS011;10642;50.682;18.510;2023-05-10T09:32:37;1.83;;;1.07;;
20966;SDS011;10642;50.682;18.510;2023-05-10T09:35:09;6.33;;;2.60;;
20966;SDS011;10642;50.682;18.510;2023-05-10T09:37:36;5.07;;;2.00;;
20966;SDS011;10642;50.682;18.510;2023-05-10T09:40:06;2.23;;;1.30;;
20966;SDS011;10642;50.682;18.510;2023-05-10T09:42:34;4.00;;;2.30;;
20966;SDS011;10642;50.682;18.510;2023-05-10T09:45:04;3.10;;;1.90;;
20966;SDS011;10642;50.682;18.510;2023-05-10T09:47:32;3.63;;;2.37;;
20966;SDS011;10642;50.682;18.510;2023-05-10T09:50:00;5.23;;;2.83;;
20966;SDS011;10642;50.682;18.510;2023-05-10T09:52:45;4.47;;;2.33;;
20966;SDS011;10642;50.682;18.510;2023-05-10T09:55:12;5.47;;;3.23;;
20966;SDS011;10642;50.682;18.510;2023-05-10T09:57:40;4.20;;;2.07;;
20966;SDS011;10642;50.682;18.510;2023-05-10T10:00:07;6.03;;;2.00;;
20966;SDS011;10642;50.682;18.510;2023-05-10T10:02:41;6.13;;;2.33;;
20966;SDS011;10642;50.682;18.510;2023-05-10T10:05:08;4.50;;;2.30;;
20966;SDS011;10642;50.682;18.510;2023-05-10T10:07:35;9.53;;;2.43;;
20966;SDS011;10642;50.682;18.510;2023-05-10T10:10:02;5.27;;;2.60;;
20966;SDS011;10642;50.682;18.510;2023-05-10T10:12:30;5.30;;;2.40;;
20966;SDS011;10642;50.682;18.510;2023-05-10T10:14:57;9.67;;;2.50;;
20966;SDS011;10642;50.682;18.510;2023-05-10T10:17:26;4.77;;;2.63;;
20966;SDS011;10642;50.682;18.510;2023-05-10T10:19:54;7.47;;;2.53;;
20966;SDS011;10642;50.682;18.510;2023-05-10T10:22:22;3.80;;;2.20;;
20966;SDS011;10642;50.682;18.510;2023-05-10T10:24:49;3.57;;;2.20;;
20966;SDS011;10642;50.682;18.510;2023-05-10T10:30:19;2.67;;;1.80;;
20966;SDS011;10642;50.682;18.510;2023-05-10T10:35:53;3.07;;;2.03;;
20966;SDS011;10642;50.682;18.510;2023-05-10T10:38:20;4.73;;;2.30;;
20966;SDS011;10642;50.682;18.510;2023-05-10T10:40:47;6.23;;;2.30;;
20966;SDS011;10642;50.682;18.510;2023-05-10T10:43:23;3.37;;;2.07;;
20966;SDS011;10642;50.682;18.510;2023-05-10T10:48:41;3.20;;;2.00;;
20966;SDS011;10642;50.682;18.510;2023-05-10T10:51:08;5.67;;;2.40;;
20966;SDS011;10642;50.682;18.510;2023-05-10T10:53:38;6.40;;;2.60;;
20966;SDS011;10642;50.682;18.510;2023-05-10T10:56:09;5.07;;;2.23;;
20966;SDS011;10642;50.682;18.510;2023-05-10T10:58:38;4.93;;;2.17;;
20966;SDS011;10642;50.682;18.510;2023-05-10T11:01:09;5.90;;;3.20;;
20966;SDS011;10642;50.682;18.510;2023-05-10T11:03:36;5.10;;;2.77;;
20966;SDS011;10642;50.682;18.510;2023-05-10T11:06:03;5.43;;;2.33;;
20966;SDS011;10642;50.682;18.510;2023-05-10T11:08:31;3.63;;;2.20;;
20966;SDS011;10642;50.682;18.510;2023-05-10T11:13:28;3.80;;;2.23;;
20966;SDS011;10642;50.682;18.510;2023-05-10T11:15:56;4.33;;;2.17;;
20966;SDS011;10642;50.682;18.510;2023-05-10T11:18:24;3.60;;;2.40;;
20966;SDS011;10642;50.682;18.510;2023-05-10T11:20:52;4.50;;;2.07;;
20966;SDS011;10642;50.682;18.510;2023-05-10T11:23:21;3.60;;;1.83;;
20966;SDS011;10642;50.682;18.510;2023-05-10T11:25:48;3.63;;;2.00;;
20966;SDS011;10642;50.682;18.510;2023-05-10T11:28:17;6.03;;;2.43;;
20966;SDS011;10642;50.682;18.510;2023-05-10T11:30:44;3.77;;;2.20;;
20966;SDS011;10642;50.682;18.510;2023-05-10T11:33:15;4.80;;;2.60;;
20966;SDS011;10642;50.682;18.510;2023-05-10T11:35:43;7.20;;;2.30;;
20966;SDS011;10642;50.682;18.510;2023-05-10T11:38:10;3.43;;;2.50;;
20966;SDS011;10642;50.682;18.510;2023-05-10T11:40:38;3.80;;;2.57;;
20966;SDS011;10642;50.682;18.510;2023-05-10T11:43:05;5.10;;;2.10;;
20966;SDS011;10642;50.682;18.510;2023-05-10T11:45:35;7.03;;;2.40;;
20966;SDS011;10642;50.682;18.510;2023-05-10T11:48:02;5.13;;;2.10;;
20966;SDS011;10642;50.682;18.510;2023-05-10T11:50:29;3.67;;;1.97;;
20966;SDS011;10642;50.682;18.510;2023-05-10T11:52:56;4.80;;;2.50;;
20966;SDS011;10642;50.682;18.510;2023-05-10T11:55:23;4.43;;;2.40;;
20966;SDS011;10642;50.682;18.510;2023-05-10T11:57:53;3.10;;;1.80;;
20966;SDS011;10642;50.682;18.510;2023-05-10T12:00:20;3.93;;;2.17;;
20966;SDS011;10642;50.682;18.510;2023-05-10T12:02:48;8.47;;;2.27;;
20966;SDS011;10642;50.682;18.510;2023-05-10T12:05:15;4.03;;;2.13;;
20966;SDS011;10642;50.682;18.510;2023-05-10T12:07:42;4.03;;;1.93;;
20966;SDS011;10642;50.682;18.510;2023-05-10T12:10:10;3.60;;;2.20;;
20966;SDS011;10642;50.682;18.510;2023-05-10T12:12:38;3.13;;;2.20;;
20966;SDS011;10642;50.682;18.510;2023-05-10T12:15:05;4.17;;;2.20;;
20966;SDS011;10642;50.682;18.510;2023-05-10T12:17:37;3.70;;;2.43;;
20966;SDS011;10642;50.682;18.510;2023-05-10T12:20:21;4.37;;;2.20;;
20966;SDS011;10642;50.682;18.510;2023-05-10T12:22:49;5.77;;;2.87;;
20966;SDS011;10642;50.682;18.510;2023-05-10T12:25:17;5.20;;;2.37;;
20966;SDS011;10642;50.682;18.510;2023-05-10T12:27:54;3.23;;;2.03;;
20966;SDS011;10642;50.682;18.510;2023-05-10T12:30:25;2.50;;;1.50;;
20966;SDS011;10642;50.682;18.510;2023-05-10T12:32:52;4.50;;;2.27;;
20966;SDS011;10642;50.682;18.510;2023-05-10T12:35:19;2.90;;;1.87;;
20966;SDS011;10642;50.682;18.510;2023-05-10T12:37:50;2.57;;;1.60;;
20966;SDS011;10642;50.682;18.510;2023-05-10T12:40:17;7.87;;;2.37;;
20966;SDS011;10642;50.682;18.510;2023-05-10T12:42:44;5.57;;;2.50;;
20966;SDS011;10642;50.682;18.510;2023-05-10T12:45:12;4.80;;;2.20;;
20966;SDS011;10642;50.682;18.510;2023-05-10T12:47:39;4.40;;;2.87;;
20966;SDS011;10642;50.682;18.510;2023-05-10T12:50:09;3.53;;;2.10;;
20966;SDS011;10642;50.682;18.510;2023-05-10T12:52:36;7.53;;;2.50;;
20966;SDS011;10642;50.682;18.510;2023-05-10T12:55:04;2.70;;;1.90;;
20966;SDS011;10642;50.682;18.510;2023-05-10T12:57:30;5.07;;;2.00;;
20966;SDS011;10642;50.682;18.510;2023-05-10T12:59:57;3.27;;;2.07;;
20966;SDS011;10642;50.682;18.510;2023-05-10T13:02:24;3.13;;;1.90;;
20966;SDS011;10642;50.682;18.510;2023-05-10T13:04:52;4.17;;;1.77;;
20966;SDS011;10642;50.682;18.510;2023-05-10T13:07:19;3.17;;;2.17;;
20966;SDS011;10642;50.682;18.510;2023-05-10T13:09:46;3.10;;;2.20;;
20966;SDS011;10642;50.682;18.510;2023-05-10T13:12:13;3.13;;;1.77;;
20966;SDS011;10642;50.682;18.510;2023-05-10T13:14:40;3.00;;;1.73;;
20966;SDS011;10642;50.682;18.510;2023-05-10T13:17:07;4.20;;;2.20;;
20966;SDS011;10642;50.682;18.510;2023-05-10T13:19:34;3.00;;;2.07;;
20966;SDS011;10642;50.682;18.510;2023-05-10T13:22:01;4.47;;;2.10;;
20966;SDS011;10642;50.682;18.510;2023-05-10T13:24:28;4.10;;;2.33;;
20966;SDS011;10642;50.682;18.510;2023-05-10T13:26:55;7.40;;;2.60;;
20966;SDS011;10642;50.682;18.510;2023-05-10T13:29:22;4.90;;;2.07;;
20966;SDS011;10642;50.682;18.510;2023-05-10T13:31:49;5.97;;;2.33;;
20966;SDS011;10642;50.682;18.510;2023-05-10T13:34:16;2.90;;;2.43;;
20966;SDS011;10642;50.682;18.510;2023-05-10T13:36:43;4.30;;;1.77;;
20966;SDS011;10642;50.682;18.510;2023-05-10T13:39:10;4.70;;;1.87;;
20966;SDS011;10642;50.682;18.510;2023-05-10T13:41:37;4.33;;;2.03;;
20966;SDS011;10642;50.682;18.510;2023-05-10T13:44:04;4.13;;;2.60;;
20966;SDS011;10642;50.682;18.510;2023-05-10T13:46:34;5.03;;;2.00;;
20966;SDS011;10642;50.682;18.510;2023-05-10T13:49:01;5.77;;;2.40;;
20966;SDS011;10642;50.682;18.510;2023-05-10T13:51:28;3.87;;;2.20;;
20966;SDS011;10642;50.682;18.510;2023-05-10T13:53:55;3.50;;;2.57;;
20966;SDS011;10642;50.682;18.510;2023-05-10T13:56:22;6.17;;;2.60;;
20966;SDS011;10642;50.682;18.510;2023-05-10T13:58:49;5.47;;;2.40;;
20966;SDS011;10642;50.682;18.510;2023-05-10T14:01:16;4.37;;;2.30;;
20966;SDS011;10642;50.682;18.510;2023-05-10T14:03:43;7.03;;;2.43;;
20966;SDS011;10642;50.682;18.510;2023-05-10T14:06:10;6.73;;;2.33;;
20966;SDS011;10642;50.682;18.510;2023-05-10T14:08:37;6.10;;;2.30;;
20966;SDS011;10642;50.682;18.510;2023-05-10T14:11:04;7.70;;;3.10;;
20966;SDS011;10642;50.682;18.510;2023-05-10T14:13:31;6.40;;;2.67;;
20966;SDS011;10642;50.682;18.510;2023-05-10T14:15:58;3.87;;;2.57;;
20966;SDS011;10642;50.682;18.510;2023-05-10T14:18:27;3.73;;;2.37;;
20966;SDS011;10642;50.682;18.510;2023-05-10T14:20:55;5.23;;;2.40;;
20966;SDS011;10642;50.682;18.510;2023-05-10T14:23:22;7.40;;;2.43;;
20966;SDS011;10642;50.682;18.510;2023-05-10T14:25:52;6.40;;;2.57;;
20966;SDS011;10642;50.682;18.510;2023-05-10T14:28:19;4.43;;;2.07;;
20966;SDS011;10642;50.682;18.510;2023-05-10T14:30:47;4.70;;;2.13;;
20966;SDS011;10642;50.682;18.510;2023-05-10T14:33:14;4.87;;;2.57;;
20966;SDS011;10642;50.682;18.510;2023-05-10T14:35:41;7.50;;;2.97;;
20966;SDS011;10642;50.682;18.510;2023-05-10T14:38:08;7.13;;;2.63;;
20966;SDS011;10642;50.682;18.510;2023-05-10T14:40:35;4.87;;;2.77;;
20966;SDS011;10642;50.682;18.510;2023-05-10T14:43:02;5.83;;;2.30;;
20966;SDS011;10642;50.682;18.510;2023-05-10T14:45:29;5.93;;;2.10;;
20966;SDS011;10642;50.682;18.510;2023-05-10T14:47:56;6.50;;;2.63;;
20966;SDS011;10642;50.682;18.510;2023-05-10T14:50:23;7.27;;;2.27;;
20966;SDS011;10642;50.682;18.510;2023-05-10T14:52:57;5.53;;;2.20;;
20966;SDS011;10642;50.682;18.510;2023-05-10T14:55:25;5.77;;;2.80;;
20966;SDS011;10642;50.682;18.510;2023-05-10T14:57:52;7.60;;;2.30;;
20966;SDS011;10642;50.682;18.510;2023-05-10T15:00:19;10.30;;;2.53;;
20966;SDS011;10642;50.682;18.510;2023-05-10T15:02:47;8.37;;;2.97;;